createdAt,value
2023-04-22T00:01:41.077Z,11.87
2023-04-22T00:06:42.725Z,11.79
2023-04-22T00:11:44.303Z,11.68
2023-04-22T00:16:45.974Z,11.73
2023-04-22T00:21:47.686Z,11.50
2023-04-22T00:26:49.284Z,11.62
2023-04-22T00:31:51.377Z,11.44
2023-04-22T00:36:53.129Z,11.41
2023-04-22T00:41:55.315Z,11.39
2023-04-22T00:46:57.119Z,11.28
2023-04-22T00:51:59.351Z,11.29
2023-04-22T00:57:01.010Z,11.20
2023-04-22T01:02:03.989Z,11.33
2023-04-22T01:07:06.573Z,11.21
2023-04-22T01:12:08.364Z,11.15
2023-04-22T01:17:10.657Z,11.12
2023-04-22T01:22:14.077Z,11.04
2023-04-22T01:27:15.849Z,10.99
2023-04-22T01:32:17.910Z,10.98
2023-04-22T01:37:20.571Z,10.95
2023-04-22T01:42:22.241Z,10.84
2023-04-22T01:47:23.952Z,10.81
2023-04-22T01:52:27.579Z,10.66
2023-04-22T01:57:29.549Z,10.59
2023-04-22T02:02:31.622Z,10.47
2023-04-22T02:07:33.273Z,10.56
2023-04-22T02:12:34.945Z,10.43
2023-04-22T02:17:36.580Z,10.38
2023-04-22T02:22:38.659Z,10.41
2023-04-22T02:27:40.320Z,10.30
2023-04-22T02:32:42.072Z,10.39
2023-04-22T02:37:43.717Z,10.19
2023-04-22T02:42:45.319Z,10.23
2023-04-22T02:47:47.010Z,10.22
2023-04-22T02:52:49.707Z,10.20
2023-04-22T02:57:51.419Z,10.06
2023-04-22T03:02:53.494Z,10.05
2023-04-22T03:07:59.852Z,10.11
2023-04-22T03:13:02.724Z,10.13
2023-04-22T03:18:04.885Z,10.08
2023-04-22T03:23:07.981Z,10.04
2023-04-22T03:28:10.805Z,10.00
2023-04-22T03:33:12.545Z,9.94
2023-04-22T03:38:23.126Z,9.93
2023-04-22T03:43:26.201Z,9.83
2023-04-22T03:48:37.057Z,9.93
2023-04-22T03:53:44.642Z,9.99
2023-04-22T03:58:51.624Z,9.86
2023-04-22T04:03:53.640Z,9.96
2023-04-22T04:09:01.673Z,9.88
2023-04-22T04:14:04.516Z,9.74
2023-04-22T04:19:12.647Z,9.80
2023-04-22T04:24:15.582Z,9.81
2023-04-22T04:29:23.753Z,9.85
2023-04-22T04:34:37.546Z,9.90
2023-04-22T04:39:42.267Z,9.97
2023-04-22T04:44:47.166Z,10.04
2023-04-22T04:49:50.099Z,10.15
2023-04-22T04:54:51.868Z,10.20
2023-04-22T04:59:53.806Z,10.45
2023-04-22T05:04:57.025Z,10.42
2023-04-22T05:09:59.934Z,10.66
2023-04-22T05:15:02.162Z,10.90
2023-04-22T05:20:04.975Z,11.16
2023-04-22T05:25:07.262Z,11.27
2023-04-22T05:30:09.482Z,11.27
2023-04-22T05:35:11.304Z,11.61
2023-04-22T05:40:13.349Z,11.82
2023-04-22T05:45:15.693Z,11.93
2023-04-22T05:50:17.614Z,12.12
2023-04-22T05:55:28.625Z,12.34
2023-04-22T06:00:30.416Z,12.60
2023-04-22T06:05:49.792Z,12.91
2023-04-22T06:10:51.520Z,13.13
2023-04-22T06:15:53.581Z,13.21
2023-04-22T06:20:55.754Z,13.43
2023-04-22T06:25:58.800Z,13.66
2023-04-22T06:31:02.165Z,13.93
2023-04-22T06:36:05.204Z,14.02
2023-04-22T06:41:07.574Z,14.45
2023-04-22T06:46:13.311Z,14.67
2023-04-22T06:51:35.043Z,14.66
2023-04-22T06:56:36.942Z,14.95
2023-04-22T07:01:38.542Z,15.25
2023-04-22T07:06:41.160Z,15.48
2023-04-22T07:11:42.739Z,15.36
2023-04-22T07:16:49.311Z,15.73
2023-04-22T07:21:50.979Z,15.57
2023-04-22T07:26:52.550Z,15.67
2023-04-22T07:31:54.247Z,15.79
2023-04-22T07:36:55.841Z,15.80
2023-04-22T07:41:57.723Z,15.80
2023-04-22T07:46:59.435Z,16.07
2023-04-22T07:52:01.120Z,16.10
2023-04-22T07:57:02.934Z,16.16
2023-04-22T08:02:04.544Z,16.19
2023-04-22T08:07:26.444Z,16.34
2023-04-22T08:12:27.954Z,16.42
2023-04-22T08:17:29.520Z,16.52
2023-04-22T08:22:32.067Z,16.57
2023-04-22T08:27:33.656Z,16.72
2023-04-22T08:32:35.285Z,16.76
2023-04-22T08:37:37.055Z,16.75
2023-04-22T08:42:38.636Z,16.91
2023-04-22T08:47:40.577Z,16.94
2023-04-22T08:52:43.041Z,16.93
2023-04-22T08:57:45.364Z,17.05
2023-04-22T09:02:48.320Z,17.07
2023-04-22T09:07:50.245Z,17.16
2023-04-22T09:12:52.369Z,17.10
2023-04-22T09:17:54.335Z,17.36
2023-04-22T09:22:57.287Z,17.31
2023-04-22T09:27:59.464Z,17.50
2023-04-22T09:33:03.353Z,17.65
2023-04-22T09:38:08.001Z,17.70
2023-04-22T09:43:10.724Z,17.69
2023-04-22T09:48:14.286Z,17.74
2023-04-22T09:53:17.472Z,17.71
2023-04-22T09:58:20.994Z,18.10
2023-04-22T10:03:22.687Z,18.07
2023-04-22T10:08:24.520Z,17.93
2023-04-22T10:13:26.063Z,18.23
2023-04-22T10:18:28.830Z,18.00
2023-04-22T10:23:33.030Z,18.07
2023-04-22T10:28:34.871Z,18.19
2023-04-22T10:33:37.567Z,18.47
2023-04-22T10:39:00.692Z,18.53
2023-04-22T10:44:06.324Z,18.58
2023-04-22T10:49:18.171Z,18.65
2023-04-22T10:54:31.365Z,18.37
2023-04-22T10:59:46.242Z,18.36
2023-04-22T11:04:48.325Z,18.53
2023-04-22T11:09:59.378Z,18.57
2023-04-22T11:15:15.256Z,18.48
2023-04-22T11:20:19.623Z,18.73
2023-04-22T11:25:22.271Z,18.62
2023-04-22T11:30:25.748Z,18.43
2023-04-22T11:35:30.146Z,18.54
2023-04-22T11:40:35.813Z,18.63
2023-04-22T11:45:39.889Z,18.92
2023-04-22T11:50:44.125Z,18.60
2023-04-22T11:55:47.338Z,18.74
2023-04-22T12:00:51.226Z,19.05
2023-04-22T12:05:57.783Z,19.04
2023-04-22T12:11:01.758Z,18.81
2023-04-22T12:16:07.043Z,18.79
2023-04-22T12:21:10.438Z,18.81
2023-04-22T12:26:13.224Z,18.81
2023-04-22T12:31:15.420Z,18.80
2023-04-22T12:36:18.108Z,18.86
2023-04-22T12:41:19.792Z,18.90
2023-04-22T12:46:21.452Z,18.96
2023-04-22T12:51:23.114Z,19.28
2023-04-22T12:56:26.900Z,19.02
2023-04-22T13:01:28.954Z,19.09
2023-04-22T13:06:32.325Z,19.19
2023-04-22T13:11:33.897Z,19.33
2023-04-22T13:16:35.709Z,19.41
2023-04-22T13:21:37.416Z,19.38
2023-04-22T13:26:39.097Z,19.43
2023-04-22T13:31:44.669Z,19.28
2023-04-22T13:36:46.348Z,19.32
2023-04-22T13:41:47.885Z,19.21
2023-04-22T13:46:49.547Z,19.15
2023-04-22T13:51:51.229Z,19.28
2023-04-22T13:56:53.702Z,19.27
2023-04-22T14:01:55.241Z,19.36
2023-04-22T14:06:56.810Z,19.18
2023-04-22T14:11:58.715Z,19.54
2023-04-22T14:17:00.364Z,19.38
2023-04-22T14:22:02.019Z,19.46
2023-04-22T14:27:03.704Z,19.29
2023-04-22T14:32:05.367Z,19.42
2023-04-22T14:37:06.905Z,19.39
2023-04-22T14:42:08.548Z,19.60
2023-04-22T14:47:10.170Z,19.52
2023-04-22T14:52:11.782Z,19.50
2023-04-22T14:57:13.454Z,19.67
2023-04-22T15:02:15.912Z,19.57
2023-04-22T15:07:17.719Z,19.56
2023-04-22T15:12:19.360Z,19.81
2023-04-22T15:17:21.495Z,19.82
2023-04-22T15:22:24.107Z,19.79
2023-04-22T15:27:26.948Z,19.74
2023-04-22T15:32:28.574Z,19.59
2023-04-22T15:37:30.307Z,19.47
2023-04-22T15:42:32.344Z,19.44
2023-04-22T15:47:35.003Z,19.54
2023-04-22T15:52:37.920Z,19.44
2023-04-22T15:57:40.932Z,19.48
2023-04-22T16:02:43.800Z,19.44
2023-04-22T16:07:45.633Z,19.35
2023-04-22T16:12:47.212Z,19.27
2023-04-22T16:17:48.908Z,19.34
2023-04-22T16:22:50.578Z,19.32
2023-04-22T16:27:52.169Z,19.24
2023-04-22T16:32:54.071Z,19.21
2023-04-22T16:37:55.696Z,19.13
2023-04-22T16:43:02.799Z,19.15
2023-04-22T16:48:04.401Z,19.15
2023-04-22T16:53:07.800Z,19.22
2023-04-22T16:58:09.445Z,19.24
2023-04-22T17:03:12.238Z,19.22
2023-04-22T17:08:14.044Z,19.31
2023-04-22T17:13:16.085Z,19.22
2023-04-22T17:18:17.681Z,19.24
2023-04-22T17:23:19.912Z,19.07
2023-04-22T17:28:21.523Z,19.04
2023-04-22T17:33:23.113Z,18.94
2023-04-22T17:38:24.788Z,19.02
2023-04-22T17:43:26.384Z,18.81
2023-04-22T17:48:27.947Z,18.72
2023-04-22T17:53:29.510Z,18.64
2023-04-22T17:58:31.133Z,18.50
2023-04-22T18:03:33.235Z,18.40
2023-04-22T18:08:35.137Z,18.32
2023-04-22T18:13:36.724Z,18.24
2023-04-22T18:18:38.767Z,18.09
2023-04-22T18:23:40.340Z,18.00
2023-04-22T18:28:43.482Z,17.87
2023-04-22T18:33:45.238Z,17.76
2023-04-22T18:38:46.830Z,17.66
2023-04-22T18:43:48.604Z,17.65
2023-04-22T18:48:50.421Z,17.58
2023-04-22T18:53:52.294Z,17.48
2023-04-22T18:58:55.307Z,17.48
2023-04-22T19:03:57.087Z,17.40
2023-04-22T19:08:58.886Z,17.34
2023-04-22T19:14:02.825Z,17.37
2023-04-22T19:19:04.472Z,17.35
2023-04-22T19:24:06.658Z,17.34
2023-04-22T19:29:08.656Z,17.27
2023-04-22T19:34:10.995Z,17.27
2023-04-22T19:39:12.619Z,17.20
2023-04-22T19:44:14.173Z,17.18
2023-04-22T19:49:17.225Z,17.13
2023-04-22T19:54:21.442Z,17.10
2023-04-22T19:59:23.112Z,17.02
2023-04-22T20:04:25.704Z,16.99
2023-04-22T20:09:27.528Z,16.93
2023-04-22T20:14:29.318Z,16.89
2023-04-22T20:19:31.290Z,16.87
2023-04-22T20:24:36.080Z,16.76
2023-04-22T20:29:40.674Z,16.70
2023-04-22T20:34:42.729Z,16.66
2023-04-22T20:39:44.438Z,16.52
2023-04-22T20:44:46.280Z,16.38
2023-04-22T20:49:47.911Z,16.45
2023-04-22T20:54:55.359Z,16.44
2023-04-22T20:59:57.114Z,16.34
2023-04-22T21:04:59.457Z,16.22
2023-04-22T21:10:01.252Z,16.31
2023-04-22T21:15:03.207Z,16.27
2023-04-22T21:20:05.601Z,16.21
2023-04-22T21:25:07.804Z,16.16
2023-04-22T21:30:10.125Z,16.10
2023-04-22T21:35:11.757Z,16.11
2023-04-22T21:40:13.726Z,16.08
2023-04-22T21:45:15.361Z,16.03
2023-04-22T21:50:18.069Z,16.01
2023-04-22T21:55:20.672Z,16.00
2023-04-22T22:00:24.921Z,15.97
2023-04-22T22:05:26.511Z,15.92
2023-04-22T22:10:28.103Z,15.91
2023-04-22T22:15:30.390Z,15.87
2023-04-22T22:20:32.174Z,15.87
2023-04-22T22:25:33.774Z,15.88
2023-04-22T22:30:35.421Z,15.84
2023-04-22T22:35:37.048Z,15.69
2023-04-22T22:40:38.639Z,15.63
2023-04-22T22:45:40.969Z,15.59
2023-04-22T22:50:43.574Z,15.58
2023-04-22T22:55:45.168Z,15.53
2023-04-22T23:00:46.791Z,15.53
2023-04-22T23:05:48.390Z,15.37
2023-04-22T23:10:50.444Z,15.40
2023-04-22T23:15:52.009Z,15.41
2023-04-22T23:20:53.729Z,15.46
2023-04-22T23:25:56.356Z,15.36
2023-04-22T23:30:57.999Z,15.27
2023-04-22T23:36:00.423Z,15.36
2023-04-22T23:41:02.021Z,15.30
2023-04-22T23:46:03.833Z,15.38
2023-04-22T23:51:05.444Z,15.32
2023-04-22T23:56:07.460Z,15.47
